sensor_id;sensor_type;location;lat;lon;timestamp;pressure;altitude;pressure_sealevel;temperature;humidity
47280;BME280;34064;44.942;0.008;2023-03-31T00:01:38;98346.22;;;18.68;53.73
47280;BME280;34064;44.942;0.008;2023-03-31T00:04:09;98365.91;;;18.69;53.95
47280;BME280;34064;44.942;0.008;2023-03-31T00:06:39;98360.69;;;18.67;53.87
47280;BME280;34064;44.942;0.008;2023-03-31T00:09:14;98350.94;;;18.66;53.81
47280;BME280;34064;44.942;0.008;2023-03-31T00:11:44;98356.97;;;18.68;53.81
47280;BME280;34064;44.942;0.008;2023-03-31T00:14:11;98348.56;;;18.71;53.67
47280;BME280;34064;44.942;0.008;2023-03-31T00:16:38;98354.59;;;18.74;53.49
47280;BME280;34064;44.942;0.008;2023-03-31T00:19:05;98348.00;;;18.76;53.33
47280;BME280;34064;44.942;0.008;2023-03-31T00:21:35;98347.16;;;18.76;53.28
47280;BME280;34064;44.942;0.008;2023-03-31T00:24:05;98351.19;;;18.80;53.25
47280;BME280;34064;44.942;0.008;2023-03-31T00:26:33;98350.97;;;18.81;53.05
47280;BME280;34064;44.942;0.008;2023-03-31T00:29:01;98344.44;;;18.84;52.78
47280;BME280;34064;44.942;0.008;2023-03-31T00:31:29;98337.84;;;18.86;52.82
47280;BME280;34064;44.942;0.008;2023-03-31T00:33:55;98342.50;;;18.93;52.48
47280;BME280;34064;44.942;0.008;2023-03-31T00:36:23;98341.50;;;18.94;52.26
47280;BME280;34064;44.942;0.008;2023-03-31T00:38:59;98329.28;;;19.06;51.40
47280;BME280;34064;44.942;0.008;2023-03-31T00:41:28;98322.94;;;19.14;51.17
47280;BME280;34064;44.942;0.008;2023-03-31T00:44:12;98326.75;;;19.20;50.30
47280;BME280;34064;44.942;0.008;2023-03-31T00:49:13;98342.25;;;19.32;50.01
47280;BME280;34064;44.942;0.008;2023-03-31T00:51:42;98329.19;;;19.44;49.55
47280;BME280;34064;44.942;0.008;2023-03-31T00:54:09;98323.25;;;19.49;49.16
47280;BME280;34064;44.942;0.008;2023-03-31T00:56:39;98330.69;;;19.47;49.16
47280;BME280;34064;44.942;0.008;2023-03-31T00:59:09;98338.84;;;19.54;48.94
47280;BME280;34064;44.942;0.008;2023-03-31T01:01:39;98323.16;;;19.57;49.07
47280;BME280;34064;44.942;0.008;2023-03-31T01:04:08;98327.31;;;19.60;48.85
47280;BME280;34064;44.942;0.008;2023-03-31T01:06:38;98329.00;;;19.61;49.00
47280;BME280;34064;44.942;0.008;2023-03-31T01:09:12;98321.47;;;19.56;49.18
47280;BME280;34064;44.942;0.008;2023-03-31T01:11:40;98336.31;;;19.67;48.75
47280;BME280;34064;44.942;0.008;2023-03-31T01:14:06;98315.31;;;19.62;48.90
47280;BME280;34064;44.942;0.008;2023-03-31T01:16:32;98331.78;;;19.53;49.21
47280;BME280;34064;44.942;0.008;2023-03-31T01:18:59;98332.91;;;19.58;48.85
47280;BME280;34064;44.942;0.008;2023-03-31T01:24:32;98338.41;;;19.50;48.88
47280;BME280;34064;44.942;0.008;2023-03-31T01:27:14;98334.28;;;19.54;48.50
47280;BME280;34064;44.942;0.008;2023-03-31T01:38:47;98348.50;;;19.33;48.57
47280;BME280;34064;44.942;0.008;2023-03-31T01:54:47;98358.25;;;19.19;49.16
47280;BME280;34064;44.942;0.008;2023-03-31T01:57:31;98354.78;;;19.10;49.28
47280;BME280;34064;44.942;0.008;2023-03-31T02:00:08;98361.19;;;19.09;49.16
47280;BME280;34064;44.942;0.008;2023-03-31T02:02:39;98348.56;;;19.10;49.29
47280;BME280;34064;44.942;0.008;2023-03-31T02:05:15;98354.13;;;19.08;49.44
47280;BME280;34064;44.942;0.008;2023-03-31T02:08:00;98360.06;;;19.04;49.69
47280;BME280;34064;44.942;0.008;2023-03-31T02:10:30;98362.66;;;18.97;49.69
47280;BME280;34064;44.942;0.008;2023-03-31T02:12:59;98368.91;;;18.89;49.99
47280;BME280;34064;44.942;0.008;2023-03-31T02:15:32;98366.88;;;18.91;50.13
47280;BME280;34064;44.942;0.008;2023-03-31T02:18:01;98372.81;;;18.86;50.33
47280;BME280;34064;44.942;0.008;2023-03-31T02:20:31;98382.72;;;18.86;50.08
47280;BME280;34064;44.942;0.008;2023-03-31T02:22:59;98372.28;;;18.91;50.35
47280;BME280;34064;44.942;0.008;2023-03-31T02:25:34;98396.66;;;18.90;50.43
47280;BME280;34064;44.942;0.008;2023-03-31T02:28:10;98378.91;;;18.80;50.80
47280;BME280;34064;44.942;0.008;2023-03-31T02:31:04;98391.06;;;18.76;50.96
47280;BME280;34064;44.942;0.008;2023-03-31T02:33:32;98392.91;;;18.76;50.98
47280;BME280;34064;44.942;0.008;2023-03-31T02:35:59;98400.81;;;18.77;50.98
47280;BME280;34064;44.942;0.008;2023-03-31T02:38:26;98400.50;;;18.72;51.02
47280;BME280;34064;44.942;0.008;2023-03-31T02:40:53;98398.72;;;18.64;50.88
47280;BME280;34064;44.942;0.008;2023-03-31T02:43:20;98393.34;;;18.64;50.79
47280;BME280;34064;44.942;0.008;2023-03-31T02:45:48;98394.03;;;18.58;51.14
47280;BME280;34064;44.942;0.008;2023-03-31T02:48:27;98396.91;;;18.57;51.14
47280;BME280;34064;44.942;0.008;2023-03-31T02:54:07;98398.47;;;18.51;50.79
47280;BME280;34064;44.942;0.008;2023-03-31T03:10:27;98394.44;;;18.23;50.80
47280;BME280;34064;44.942;0.008;2023-03-31T03:13:19;98388.50;;;18.28;50.35
47280;BME280;34064;44.942;0.008;2023-03-31T03:16:07;98393.91;;;18.28;50.38
47280;BME280;34064;44.942;0.008;2023-03-31T03:18:36;98392.94;;;18.21;50.11
47280;BME280;34064;44.942;0.008;2023-03-31T03:21:02;98397.31;;;18.22;50.22
47280;BME280;34064;44.942;0.008;2023-03-31T03:23:28;98393.25;;;18.26;50.01
47280;BME280;34064;44.942;0.008;2023-03-31T03:25:56;98381.84;;;18.24;49.85
47280;BME280;34064;44.942;0.008;2023-03-31T03:28:22;98383.84;;;18.22;49.43
47280;BME280;34064;44.942;0.008;2023-03-31T03:30:49;98383.19;;;18.20;49.03
47280;BME280;34064;44.942;0.008;2023-03-31T03:33:16;98375.97;;;18.20;48.73
47280;BME280;34064;44.942;0.008;2023-03-31T03:35:42;98376.47;;;18.24;48.43
47280;BME280;34064;44.942;0.008;2023-03-31T03:38:09;98386.41;;;18.15;48.46
47280;BME280;34064;44.942;0.008;2023-03-31T03:40:35;98385.88;;;18.20;48.11
47280;BME280;34064;44.942;0.008;2023-03-31T03:43:02;98370.59;;;18.20;47.88
47280;BME280;34064;44.942;0.008;2023-03-31T03:45:28;98380.88;;;18.17;48.30
47280;BME280;34064;44.942;0.008;2023-03-31T03:47:55;98389.47;;;18.12;48.54
47280;BME280;34064;44.942;0.008;2023-03-31T03:50:21;98384.56;;;18.16;48.18
47280;BME280;34064;44.942;0.008;2023-03-31T03:52:48;98383.91;;;18.14;48.08
47280;BME280;34064;44.942;0.008;2023-03-31T03:55:14;98383.25;;;18.12;47.53
47280;BME280;34064;44.942;0.008;2023-03-31T03:57:42;98387.41;;;18.14;47.25
47280;BME280;34064;44.942;0.008;2023-03-31T04:00:09;98398.38;;;18.13;47.11
47280;BME280;34064;44.942;0.008;2023-03-31T04:02:38;98414.19;;;18.07;46.92
47280;BME280;34064;44.942;0.008;2023-03-31T04:05:04;98403.06;;;18.11;46.82
47280;BME280;34064;44.942;0.008;2023-03-31T04:07:31;98411.13;;;18.11;46.98
47280;BME280;34064;44.942;0.008;2023-03-31T04:09:57;98415.50;;;18.12;47.22
47280;BME280;34064;44.942;0.008;2023-03-31T04:12:24;98425.94;;;18.06;47.21
47280;BME280;34064;44.942;0.008;2023-03-31T04:14:50;98430.34;;;17.99;47.50
47280;BME280;34064;44.942;0.008;2023-03-31T04:17:16;98425.31;;;17.96;47.66
47280;BME280;34064;44.942;0.008;2023-03-31T04:19:43;98429.16;;;17.93;47.79
47280;BME280;34064;44.942;0.008;2023-03-31T04:22:09;98431.53;;;17.88;48.00
47280;BME280;34064;44.942;0.008;2023-03-31T04:24:37;98424.66;;;17.86;48.20
47280;BME280;34064;44.942;0.008;2023-03-31T04:27:04;98431.38;;;17.82;48.31
47280;BME280;34064;44.942;0.008;2023-03-31T04:29:32;98433.41;;;17.80;48.47
47280;BME280;34064;44.942;0.008;2023-03-31T04:31:59;98436.09;;;17.71;48.72
47280;BME280;34064;44.942;0.008;2023-03-31T04:34:26;98436.97;;;17.72;48.97
47280;BME280;34064;44.942;0.008;2023-03-31T04:37:00;98438.97;;;17.70;49.13
47280;BME280;34064;44.942;0.008;2023-03-31T04:39:28;98437.13;;;17.70;49.28
47280;BME280;34064;44.942;0.008;2023-03-31T04:41:59;98434.78;;;17.67;49.18
47280;BME280;34064;44.942;0.008;2023-03-31T04:44:26;98440.16;;;17.67;49.37
47280;BME280;34064;44.942;0.008;2023-03-31T04:46:53;98433.09;;;17.66;49.59
47280;BME280;34064;44.942;0.008;2023-03-31T04:49:19;98431.44;;;17.65;49.59
47280;BME280;34064;44.942;0.008;2023-03-31T04:51:46;98435.13;;;17.64;49.96
47280;BME280;34064;44.942;0.008;2023-03-31T04:54:13;98428.94;;;17.64;49.76
47280;BME280;34064;44.942;0.008;2023-03-31T04:56:39;98439.19;;;17.60;49.80
47280;BME280;34064;44.942;0.008;2023-03-31T04:59:05;98439.19;;;17.60;49.79
47280;BME280;34064;44.942;0.008;2023-03-31T05:01:33;98448.91;;;17.53;49.84
47280;BME280;34064;44.942;0.008;2023-03-31T05:04:01;98462.19;;;17.54;49.78
47280;BME280;34064;44.942;0.008;2023-03-31T05:06:28;98436.16;;;17.55;49.66
47280;BME280;34064;44.942;0.008;2023-03-31T05:08:54;98452.44;;;17.53;49.53
47280;BME280;34064;44.942;0.008;2023-03-31T05:11:21;98466.06;;;17.52;49.59
47280;BME280;34064;44.942;0.008;2023-03-31T05:13:48;98477.94;;;17.57;49.41
47280;BME280;34064;44.942;0.008;2023-03-31T05:16:14;98474.41;;;17.57;49.65
47280;BME280;34064;44.942;0.008;2023-03-31T05:18:42;98478.28;;;17.54;49.62
47280;BME280;34064;44.942;0.008;2023-03-31T05:21:12;98483.66;;;17.54;49.64
47280;BME280;34064;44.942;0.008;2023-03-31T05:23:39;98490.22;;;17.52;50.04
47280;BME280;34064;44.942;0.008;2023-03-31T05:26:06;98480.81;;;17.39;50.29
47280;BME280;34064;44.942;0.008;2023-03-31T05:28:34;98494.25;;;17.48;50.09
47280;BME280;34064;44.942;0.008;2023-03-31T05:31:02;98485.88;;;17.42;50.35
47280;BME280;34064;44.942;0.008;2023-03-31T05:33:29;98486.19;;;17.39;50.36
47280;BME280;34064;44.942;0.008;2023-03-31T05:35:56;98489.22;;;17.36;50.48
47280;BME280;34064;44.942;0.008;2023-03-31T05:38:22;98490.91;;;17.29;50.66
47280;BME280;34064;44.942;0.008;2023-03-31T05:40:49;98482.66;;;17.30;50.63
47280;BME280;34064;44.942;0.008;2023-03-31T05:43:15;98490.56;;;17.32;50.75
47280;BME280;34064;44.942;0.008;2023-03-31T05:45:41;98497.44;;;17.26;50.74
47280;BME280;34064;44.942;0.008;2023-03-31T05:48:08;98503.63;;;17.27;50.80
47280;BME280;34064;44.942;0.008;2023-03-31T05:50:35;98498.94;;;17.21;50.89
47280;BME280;34064;44.942;0.008;2023-03-31T05:53:01;98492.59;;;17.22;51.05
47280;BME280;34064;44.942;0.008;2023-03-31T05:55:28;98500.78;;;17.20;50.92
47280;BME280;34064;44.942;0.008;2023-03-31T05:57:54;98501.81;;;17.19;51.07
47280;BME280;34064;44.942;0.008;2023-03-31T06:00:21;98517.38;;;17.15;51.20
47280;BME280;34064;44.942;0.008;2023-03-31T06:02:47;98516.75;;;17.13;51.20
47280;BME280;34064;44.942;0.008;2023-03-31T06:05:14;98523.94;;;17.13;51.08
47280;BME280;34064;44.942;0.008;2023-03-31T06:07:41;98523.44;;;17.09;51.18
47280;BME280;34064;44.942;0.008;2023-03-31T06:10:07;98534.16;;;17.09;51.44
47280;BME280;34064;44.942;0.008;2023-03-31T06:12:35;98535.53;;;17.13;51.29
47280;BME280;34064;44.942;0.008;2023-03-31T06:15:02;98532.97;;;17.12;51.38
47280;BME280;34064;44.942;0.008;2023-03-31T06:17:29;98533.84;;;17.12;51.39
47280;BME280;34064;44.942;0.008;2023-03-31T06:19:55;98532.16;;;17.11;51.36
47280;BME280;34064;44.942;0.008;2023-03-31T06:22:21;98535.16;;;17.17;51.47
47280;BME280;34064;44.942;0.008;2023-03-31T06:24:48;98541.41;;;17.17;51.27
47280;BME280;34064;44.942;0.008;2023-03-31T06:27:15;98538.22;;;17.22;51.18
47280;BME280;34064;44.942;0.008;2023-03-31T06:29:41;98546.75;;;17.17;51.20
47280;BME280;34064;44.942;0.008;2023-03-31T06:32:08;98542.91;;;17.20;50.96
47280;BME280;34064;44.942;0.008;2023-03-31T06:34:34;98542.91;;;17.20;51.04
47280;BME280;34064;44.942;0.008;2023-03-31T06:37:01;98542.41;;;17.24;51.07
47280;BME280;34064;44.942;0.008;2023-03-31T06:39:27;98543.59;;;17.22;51.04
47280;BME280;34064;44.942;0.008;2023-03-31T06:41:54;98540.53;;;17.25;51.00
47280;BME280;34064;44.942;0.008;2023-03-31T06:44:20;98537.53;;;17.28;51.05
47280;BME280;34064;44.942;0.008;2023-03-31T06:46:48;98539.22;;;17.29;51.14
47280;BME280;34064;44.942;0.008;2023-03-31T06:49:14;98542.22;;;17.34;50.91
47280;BME280;34064;44.942;0.008;2023-03-31T06:51:41;98537.22;;;17.39;50.92
47280;BME280;34064;44.942;0.008;2023-03-31T06:54:07;98528.66;;;17.44;50.83
47280;BME280;34064;44.942;0.008;2023-03-31T06:56:33;98536.03;;;17.42;50.97
47280;BME280;34064;44.942;0.008;2023-03-31T06:59:00;98551.31;;;17.33;51.19
47280;BME280;34064;44.942;0.008;2023-03-31T07:01:26;98541.06;;;17.37;51.04
47280;BME280;34064;44.942;0.008;2023-03-31T07:03:53;98541.91;;;17.37;50.90
47280;BME280;34064;44.942;0.008;2023-03-31T07:06:19;98539.88;;;17.48;50.79
47280;BME280;34064;44.942;0.008;2023-03-31T07:08:45;98529.81;;;17.50;50.85
47280;BME280;34064;44.942;0.008;2023-03-31T07:11:13;98521.25;;;17.54;51.07
47280;BME280;34064;44.942;0.008;2023-03-31T07:13:39;98518.56;;;17.62;51.06
47280;BME280;34064;44.942;0.008;2023-03-31T07:16:06;98527.28;;;17.65;50.71
47280;BME280;34064;44.942;0.008;2023-03-31T07:18:32;98541.38;;;17.67;50.93
47280;BME280;34064;44.942;0.008;2023-03-31T07:21:00;98535.16;;;17.66;50.71
47280;BME280;34064;44.942;0.008;2023-03-31T07:23:26;98533.66;;;17.72;50.82
47280;BME280;34064;44.942;0.008;2023-03-31T07:25:53;98528.78;;;17.75;50.65
47280;BME280;34064;44.942;0.008;2023-03-31T07:28:19;98529.44;;;17.77;50.67
47280;BME280;34064;44.942;0.008;2023-03-31T07:30:45;98530.44;;;17.85;50.61
47280;BME280;34064;44.942;0.008;2023-03-31T07:33:12;98509.28;;;17.98;50.54
47280;BME280;34064;44.942;0.008;2023-03-31T07:35:39;98510.94;;;18.07;49.95
47280;BME280;34064;44.942;0.008;2023-03-31T07:38:10;98509.91;;;18.17;49.80
47280;BME280;34064;44.942;0.008;2023-03-31T07:40:38;98515.63;;;18.14;50.15
47280;BME280;34064;44.942;0.008;2023-03-31T07:43:05;98519.47;;;18.19;50.00
47280;BME280;34064;44.942;0.008;2023-03-31T07:45:32;98528.69;;;18.25;50.24
47280;BME280;34064;44.942;0.008;2023-03-31T07:47:59;98532.00;;;18.35;50.10
47280;BME280;34064;44.942;0.008;2023-03-31T07:50:26;98526.75;;;18.42;49.91
47280;BME280;34064;44.942;0.008;2023-03-31T07:52:52;98530.28;;;18.43;49.89
47280;BME280;34064;44.942;0.008;2023-03-31T07:55:19;98527.59;;;18.43;49.65
47280;BME280;34064;44.942;0.008;2023-03-31T07:57:45;98521.47;;;18.57;49.13
47280;BME280;34064;44.942;0.008;2023-03-31T08:00:14;98529.56;;;18.49;48.83
47280;BME280;34064;44.942;0.008;2023-03-31T08:02:41;98532.41;;;18.55;48.90
47280;BME280;34064;44.942;0.008;2023-03-31T08:05:09;98528.38;;;18.60;48.92
47280;BME280;34064;44.942;0.008;2023-03-31T08:07:38;98544.66;;;18.58;48.44
47280;BME280;34064;44.942;0.008;2023-03-31T08:10:09;98533.56;;;18.61;48.28
47280;BME280;34064;44.942;0.008;2023-03-31T08:12:36;98543.31;;;18.62;48.14
47280;BME280;34064;44.942;0.008;2023-03-31T08:15:03;98537.94;;;18.62;48.24
47280;BME280;34064;44.942;0.008;2023-03-31T08:17:29;98557.78;;;18.61;48.58
47280;BME280;34064;44.942;0.008;2023-03-31T08:19:56;98550.50;;;18.70;48.05
47280;BME280;34064;44.942;0.008;2023-03-31T08:22:22;98543.59;;;18.67;48.14
47280;BME280;34064;44.942;0.008;2023-03-31T08:24:48;98556.28;;;18.59;48.06
47280;BME280;34064;44.942;0.008;2023-03-31T08:27:15;98553.97;;;18.79;47.59
47280;BME280;34064;44.942;0.008;2023-03-31T08:29:42;98554.56;;;18.97;47.31
47280;BME280;34064;44.942;0.008;2023-03-31T08:32:08;98540.59;;;19.02;46.91
47280;BME280;34064;44.942;0.008;2023-03-31T08:34:34;98531.22;;;19.21;46.81
47280;BME280;34064;44.942;0.008;2023-03-31T08:37:01;98530.19;;;19.22;46.56
47280;BME280;34064;44.942;0.008;2023-03-31T08:39:27;98543.69;;;19.14;46.44
47280;BME280;34064;44.942;0.008;2023-03-31T08:42:24;98542.69;;;19.15;46.56
47280;BME280;34064;44.942;0.008;2023-03-31T08:47:36;98523.72;;;19.31;46.60
47280;BME280;34064;44.942;0.008;2023-03-31T08:50:20;98532.16;;;19.28;46.43
47280;BME280;34064;44.942;0.008;2023-03-31T08:53:10;98545.63;;;19.28;46.43
47280;BME280;34064;44.942;0.008;2023-03-31T08:55:55;98541.19;;;19.12;46.24
47280;BME280;34064;44.942;0.008;2023-03-31T08:58:43;98532.56;;;19.17;46.40
47280;BME280;34064;44.942;0.008;2023-03-31T09:04:22;98547.03;;;18.93;47.01
47280;BME280;34064;44.942;0.008;2023-03-31T09:07:01;98573.78;;;18.86;47.13
47280;BME280;34064;44.942;0.008;2023-03-31T09:18:25;98524.28;;;19.42;47.01
47280;BME280;34064;44.942;0.008;2023-03-31T09:20:57;98513.03;;;19.38;46.05
47280;BME280;34064;44.942;0.008;2023-03-31T09:23:50;98529.13;;;19.31;46.31
47280;BME280;34064;44.942;0.008;2023-03-31T09:28:59;98537.00;;;19.10;47.30
47280;BME280;34064;44.942;0.008;2023-03-31T09:31:27;98538.91;;;19.01;48.00
47280;BME280;34064;44.942;0.008;2023-03-31T09:34:00;98540.78;;;18.92;48.10
47280;BME280;34064;44.942;0.008;2023-03-31T09:36:26;98567.09;;;18.82;48.74
47280;BME280;34064;44.942;0.008;2023-03-31T09:38:53;98589.00;;;18.70;50.63
47280;BME280;34064;44.942;0.008;2023-03-31T09:41:20;98593.78;;;18.52;52.44
47280;BME280;34064;44.942;0.008;2023-03-31T09:43:47;98587.47;;;18.28;53.81
47280;BME280;34064;44.942;0.008;2023-03-31T09:49:09;98602.97;;;17.93;56.12
47280;BME280;34064;44.942;0.008;2023-03-31T09:51:45;98627.16;;;17.68;56.23
47280;BME280;34064;44.942;0.008;2023-03-31T09:54:26;98612.75;;;17.61;56.83
47280;BME280;34064;44.942;0.008;2023-03-31T09:56:56;98620.44;;;17.39;56.41
47280;BME280;34064;44.942;0.008;2023-03-31T09:59:31;98624.44;;;17.35;57.28
47280;BME280;34064;44.942;0.008;2023-03-31T10:01:59;98610.56;;;17.65;57.22
47280;BME280;34064;44.942;0.008;2023-03-31T10:04:45;98598.97;;;18.05;58.20
47280;BME280;34064;44.942;0.008;2023-03-31T10:07:12;98581.03;;;18.37;57.60
47280;BME280;34064;44.942;0.008;2023-03-31T10:09:39;98564.13;;;18.68;57.20
47280;BME280;34064;44.942;0.008;2023-03-31T10:12:08;98550.75;;;18.83;56.46
47280;BME280;34064;44.942;0.008;2023-03-31T10:14:46;98555.59;;;18.88;53.57
47280;BME280;34064;44.942;0.008;2023-03-31T10:17:18;98543.88;;;18.81;53.33
47280;BME280;34064;44.942;0.008;2023-03-31T10:19:51;98541.88;;;18.83;52.52
47280;BME280;34064;44.942;0.008;2023-03-31T10:24:50;98532.03;;;18.98;51.99
47280;BME280;34064;44.942;0.008;2023-03-31T10:29:50;98529.22;;;19.15;50.92
47280;BME280;34064;44.942;0.008;2023-03-31T10:32:27;98524.09;;;19.28;50.58
47280;BME280;34064;44.942;0.008;2023-03-31T10:35:05;98516.75;;;19.37;50.19
47280;BME280;34064;44.942;0.008;2023-03-31T10:37:32;98513.44;;;19.35;50.13
47280;BME280;34064;44.942;0.008;2023-03-31T10:42:30;98520.59;;;19.43;48.97
47280;BME280;34064;44.942;0.008;2023-03-31T10:45:29;98500.88;;;19.80;49.14
47280;BME280;34064;44.942;0.008;2023-03-31T10:47:58;98488.38;;;20.03;48.47
47280;BME280;34064;44.942;0.008;2023-03-31T10:50:33;98480.00;;;19.98;46.89
47280;BME280;34064;44.942;0.008;2023-03-31T10:53:11;98486.88;;;19.85;46.89
47280;BME280;34064;44.942;0.008;2023-03-31T10:58:29;98477.63;;;19.79;47.19
47280;BME280;34064;44.942;0.008;2023-03-31T11:01:04;98472.84;;;19.90;47.77
47280;BME280;34064;44.942;0.008;2023-03-31T11:12:05;98443.19;;;20.41;45.86
47280;BME280;34064;44.942;0.008;2023-03-31T11:20:40;98395.22;;;21.24;43.85
47280;BME280;34064;44.942;0.008;2023-03-31T11:23:19;98410.88;;;21.35;43.52
47280;BME280;34064;44.942;0.008;2023-03-31T11:31:35;98442.72;;;20.90;41.99
47280;BME280;34064;44.942;0.008;2023-03-31T11:42:02;98533.91;;;19.21;45.99
47280;BME280;34064;44.942;0.008;2023-03-31T11:44:42;98554.41;;;18.91;45.29
47280;BME280;34064;44.942;0.008;2023-03-31T11:47:20;98564.78;;;18.70;45.30
47280;BME280;34064;44.942;0.008;2023-03-31T11:50:10;98538.78;;;18.94;45.70
47280;BME280;34064;44.942;0.008;2023-03-31T11:52:43;98526.47;;;19.23;45.11
47280;BME280;34064;44.942;0.008;2023-03-31T11:55:17;98504.03;;;19.69;43.92
47280;BME280;34064;44.942;0.008;2023-03-31T12:00:29;98453.94;;;20.35;42.91
47280;BME280;34064;44.942;0.008;2023-03-31T12:05:57;98426.09;;;20.93;42.95
47280;BME280;34064;44.942;0.008;2023-03-31T12:08:36;98418.88;;;21.22;42.46
47280;BME280;34064;44.942;0.008;2023-03-31T12:13:43;98428.16;;;21.12;41.44
47280;BME280;34064;44.942;0.008;2023-03-31T12:22:03;98462.63;;;20.15;41.38
47280;BME280;34064;44.942;0.008;2023-03-31T12:24:31;98458.13;;;20.22;42.36
47280;BME280;34064;44.942;0.008;2023-03-31T12:29:58;98465.47;;;20.29;41.93
47280;BME280;34064;44.942;0.008;2023-03-31T12:32:35;98463.88;;;20.34;41.78
47280;BME280;34064;44.942;0.008;2023-03-31T12:35:25;98446.97;;;20.62;42.49
47280;BME280;34064;44.942;0.008;2023-03-31T12:52:51;98486.81;;;19.55;42.03
47280;BME280;34064;44.942;0.008;2023-03-31T12:55:44;98498.78;;;19.53;41.93
47280;BME280;34064;44.942;0.008;2023-03-31T13:01:06;98455.06;;;20.25;41.67
47280;BME280;34064;44.942;0.008;2023-03-31T13:03:55;98451.56;;;20.47;41.43
47280;BME280;34064;44.942;0.008;2023-03-31T13:08:59;98434.53;;;20.46;40.91
47280;BME280;34064;44.942;0.008;2023-03-31T13:11:36;98435.78;;;20.29;40.09
47280;BME280;34064;44.942;0.008;2023-03-31T13:14:18;98436.28;;;20.17;40.62
47280;BME280;34064;44.942;0.008;2023-03-31T13:16:46;98450.72;;;19.94;40.95
47280;BME280;34064;44.942;0.008;2023-03-31T13:19:30;98464.38;;;19.78;42.86
47280;BME280;34064;44.942;0.008;2023-03-31T13:22:03;98475.28;;;19.61;45.00
47280;BME280;34064;44.942;0.008;2023-03-31T13:24:31;98476.47;;;19.44;47.05
47280;BME280;34064;44.942;0.008;2023-03-31T13:29:44;98485.78;;;19.18;47.64
47280;BME280;34064;44.942;0.008;2023-03-31T13:32:22;98507.41;;;19.10;45.44
47280;BME280;34064;44.942;0.008;2023-03-31T13:34:57;98500.81;;;19.12;44.74
47280;BME280;34064;44.942;0.008;2023-03-31T13:52:03;98485.88;;;19.48;42.75
47280;BME280;34064;44.942;0.008;2023-03-31T13:57:31;98491.03;;;19.35;43.29
47280;BME280;34064;44.942;0.008;2023-03-31T14:11:22;98492.72;;;19.12;45.55
47280;BME280;34064;44.942;0.008;2023-03-31T14:14:03;98502.84;;;19.10;45.21
47280;BME280;34064;44.942;0.008;2023-03-31T14:16:34;98500.88;;;19.04;44.39
47280;BME280;34064;44.942;0.008;2023-03-31T14:22:25;98496.91;;;19.15;44.73
47280;BME280;34064;44.942;0.008;2023-03-31T14:34:12;98451.84;;;20.00;43.12
47280;BME280;34064;44.942;0.008;2023-03-31T14:36:55;98469.50;;;19.88;44.15
47280;BME280;34064;44.942;0.008;2023-03-31T14:39:29;98467.31;;;19.83;44.32
47280;BME280;34064;44.942;0.008;2023-03-31T14:42:01;98474.19;;;19.71;44.35
47280;BME280;34064;44.942;0.008;2023-03-31T14:44:29;98468.22;;;19.60;44.74
47280;BME280;34064;44.942;0.008;2023-03-31T14:46:58;98476.59;;;19.66;44.44
47280;BME280;34064;44.942;0.008;2023-03-31T14:49:27;98475.41;;;19.83;43.57
47280;BME280;34064;44.942;0.008;2023-03-31T14:51:58;98477.56;;;19.88;43.85
47280;BME280;34064;44.942;0.008;2023-03-31T14:54:25;98464.56;;;20.06;43.55
47280;BME280;34064;44.942;0.008;2023-03-31T14:56:55;98443.09;;;20.13;42.72
47280;BME280;34064;44.942;0.008;2023-03-31T14:59:29;98467.56;;;19.97;42.54
47280;BME280;34064;44.942;0.008;2023-03-31T15:02:00;98466.44;;;19.91;42.38
47280;BME280;34064;44.942;0.008;2023-03-31T15:04:33;98469.97;;;19.91;42.54
47280;BME280;34064;44.942;0.008;2023-03-31T15:07:03;98465.88;;;19.95;43.14
47280;BME280;34064;44.942;0.008;2023-03-31T15:09:33;98474.88;;;20.03;42.84
47280;BME280;34064;44.942;0.008;2023-03-31T15:12:21;98463.84;;;19.98;42.22
47280;BME280;34064;44.942;0.008;2023-03-31T15:15:02;98464.56;;;19.91;41.95
47280;BME280;34064;44.942;0.008;2023-03-31T15:17:35;98460.09;;;19.99;42.06
47280;BME280;34064;44.942;0.008;2023-03-31T15:20:23;98450.91;;;19.93;41.98
47280;BME280;34064;44.942;0.008;2023-03-31T15:22:50;98466.50;;;19.83;41.75
47280;BME280;34064;44.942;0.008;2023-03-31T15:25:17;98473.38;;;19.70;42.06
47280;BME280;34064;44.942;0.008;2023-03-31T15:27:54;98477.34;;;19.74;42.89
47280;BME280;34064;44.942;0.008;2023-03-31T15:30:23;98474.06;;;19.87;43.19
47280;BME280;34064;44.942;0.008;2023-03-31T15:32:50;98448.38;;;20.06;42.96
47280;BME280;34064;44.942;0.008;2023-03-31T15:35:22;98435.72;;;20.58;42.69
47280;BME280;34064;44.942;0.008;2023-03-31T15:37:51;98423.31;;;20.79;40.81
47280;BME280;34064;44.942;0.008;2023-03-31T15:43:02;98425.44;;;21.12;39.70
47280;BME280;34064;44.942;0.008;2023-03-31T15:45:47;98418.75;;;21.30;39.45
47280;BME280;34064;44.942;0.008;2023-03-31T15:50:46;98433.16;;;21.15;39.70
47280;BME280;34064;44.942;0.008;2023-03-31T15:55:55;98429.56;;;21.30;40.02
47280;BME280;34064;44.942;0.008;2023-03-31T15:58:44;98440.38;;;21.08;39.06
47280;BME280;34064;44.942;0.008;2023-03-31T16:01:11;98459.78;;;20.75;40.45
47280;BME280;34064;44.942;0.008;2023-03-31T16:03:41;98465.03;;;20.62;40.23
47280;BME280;34064;44.942;0.008;2023-03-31T16:08:46;98486.56;;;20.25;40.59
47280;BME280;34064;44.942;0.008;2023-03-31T16:11:23;98492.75;;;20.55;40.06
47280;BME280;34064;44.942;0.008;2023-03-31T16:13:55;98466.03;;;20.76;39.69
47280;BME280;34064;44.942;0.008;2023-03-31T16:16:26;98483.91;;;20.98;40.38
47280;BME280;34064;44.942;0.008;2023-03-31T16:19:02;98466.28;;;21.02;39.28
47280;BME280;34064;44.942;0.008;2023-03-31T16:21:40;98479.53;;;20.76;39.47
47280;BME280;34064;44.942;0.008;2023-03-31T16:24:08;98503.41;;;20.42;39.66
47280;BME280;34064;44.942;0.008;2023-03-31T16:26:36;98520.34;;;20.06;40.36
47280;BME280;34064;44.942;0.008;2023-03-31T16:29:03;98532.09;;;19.75;40.31
47280;BME280;34064;44.942;0.008;2023-03-31T16:31:37;98531.78;;;19.70;40.72
47280;BME280;34064;44.942;0.008;2023-03-31T16:34:06;98534.19;;;19.64;40.45